createdAt,value
2017-11-13T00:02:12.482Z,89.80
2017-11-13T00:04:40.774Z,89.80
2017-11-13T00:07:08.826Z,89.80
2017-11-13T00:09:37.118Z,90.00
2017-11-13T00:12:05.365Z,90.00
2017-11-13T00:14:32.964Z,90.30
2017-11-13T00:17:00.516Z,90.00
2017-11-13T00:19:28.000Z,90.00
2017-11-13T00:21:55.509Z,90.00
2017-11-13T00:24:23.753Z,90.20
2017-11-13T00:26:51.242Z,90.00
2017-11-13T00:29:18.737Z,90.00
2017-11-13T00:31:46.232Z,90.00
2017-11-13T00:34:13.733Z,90.00
2017-11-13T00:36:41.988Z,90.00
2017-11-13T00:39:09.480Z,90.00
2017-11-13T00:41:37.026Z,89.80
2017-11-13T00:44:05.302Z,90.00
2017-11-13T00:46:33.584Z,90.00
2017-11-13T00:49:01.069Z,90.00
2017-11-13T00:51:28.563Z,90.00
2017-11-13T00:53:56.057Z,89.90
2017-11-13T00:56:23.610Z,89.90
2017-11-13T00:58:51.134Z,90.00
2017-11-13T01:01:18.626Z,90.10
2017-11-13T01:03:46.886Z,90.00
2017-11-13T01:06:15.158Z,90.10
2017-11-13T01:08:42.641Z,90.10
2017-11-13T01:11:10.207Z,90.10
2017-11-13T01:13:37.713Z,90.10
2017-11-13T01:16:05.214Z,90.20
2017-11-13T01:18:33.474Z,90.30
2017-11-13T01:21:01.773Z,90.70
2017-11-13T01:23:29.325Z,90.40
2017-11-13T01:25:56.880Z,90.50
2017-11-13T01:28:25.215Z,90.40
2017-11-13T01:30:52.709Z,90.40
2017-11-13T01:33:21.027Z,90.50
2017-11-13T01:35:48.554Z,90.50
2017-11-13T01:38:16.127Z,90.50
2017-11-13T01:40:43.673Z,90.50
2017-11-13T01:43:11.935Z,90.40
2017-11-13T01:45:40.227Z,90.30
2017-11-13T01:48:08.497Z,90.30
2017-11-13T01:50:36.747Z,90.30
2017-11-13T01:53:04.349Z,90.30
2017-11-13T01:55:31.847Z,90.20
2017-11-13T01:57:59.362Z,90.30
2017-11-13T02:00:26.918Z,90.30
2017-11-13T02:02:55.156Z,90.20
2017-11-13T02:05:22.633Z,90.10
2017-11-13T02:07:50.905Z,90.10
2017-11-13T02:10:18.400Z,90.40
2017-11-13T02:12:45.946Z,90.10
2017-11-13T02:15:13.977Z,90.10
2017-11-13T02:17:41.474Z,90.20
2017-11-13T02:20:08.976Z,90.30
2017-11-13T02:22:36.456Z,90.30
2017-11-13T02:25:04.738Z,90.40
2017-11-13T02:27:32.233Z,90.40
2017-11-13T02:29:59.721Z,90.30
2017-11-13T02:32:27.212Z,90.30
2017-11-13T02:34:54.696Z,90.40
2017-11-13T02:37:22.206Z,90.40
2017-11-13T02:39:49.713Z,90.60
2017-11-13T02:42:17.264Z,90.30
2017-11-13T02:44:45.541Z,90.40
2017-11-13T02:47:13.791Z,90.50
2017-11-13T02:49:41.406Z,90.40
2017-11-13T02:52:08.889Z,90.50
2017-11-13T02:54:36.423Z,90.60
2017-11-13T02:57:03.919Z,90.60
2017-11-13T02:59:32.913Z,90.90
2017-11-13T03:02:01.231Z,90.90
2017-11-13T03:04:28.723Z,90.60
2017-11-13T03:06:56.237Z,90.60
2017-11-13T03:09:24.545Z,90.80
2017-11-13T03:11:52.034Z,90.80
2017-11-13T03:14:19.638Z,90.80
2017-11-13T03:16:47.329Z,90.80
2017-11-13T03:19:14.817Z,90.70
2017-11-13T03:21:42.413Z,90.80
2017-11-13T03:24:09.982Z,90.80
2017-11-13T03:26:37.482Z,90.90
2017-11-13T03:29:04.969Z,91.00
2017-11-13T03:31:32.481Z,91.00
2017-11-13T03:33:59.977Z,91.00
2017-11-13T03:36:28.994Z,91.10
2017-11-13T03:38:57.254Z,91.10
2017-11-13T03:41:24.749Z,91.10
2017-11-13T03:43:52.291Z,91.10
2017-11-13T03:46:19.802Z,91.10
2017-11-13T03:48:47.306Z,91.30
2017-11-13T03:51:15.569Z,91.40
2017-11-13T03:53:43.873Z,91.40
2017-11-13T03:56:11.365Z,91.40
2017-11-13T03:58:38.872Z,91.30
2017-11-13T04:01:07.121Z,91.30
2017-11-13T04:03:35.041Z,91.20
2017-11-13T04:06:02.530Z,91.20
2017-11-13T04:08:30.009Z,91.20
2017-11-13T04:10:58.271Z,91.20
2017-11-13T04:13:25.761Z,91.20
2017-11-13T04:15:54.036Z,91.10
2017-11-13T04:18:22.290Z,91.10
2017-11-13T04:20:50.285Z,91.10
2017-11-13T04:23:17.810Z,91.10
2017-11-13T04:25:45.323Z,91.10
2017-11-13T04:28:12.813Z,91.10
2017-11-13T04:30:40.309Z,91.10
2017-11-13T04:33:08.601Z,91.00
2017-11-13T04:35:36.100Z,91.00
2017-11-13T04:38:03.619Z,91.00
2017-11-13T04:40:31.122Z,91.00
2017-11-13T04:42:58.616Z,91.10
2017-11-13T04:45:26.193Z,91.00
2017-11-13T04:47:54.473Z,91.10
2017-11-13T04:50:22.720Z,91.10
2017-11-13T04:52:50.192Z,91.00
2017-11-13T04:55:18.510Z,91.10
2017-11-13T04:57:46.006Z,91.10
2017-11-13T05:00:14.266Z,91.10
2017-11-13T05:02:41.874Z,91.10
2017-11-13T05:05:09.461Z,91.00
2017-11-13T05:07:37.089Z,91.00
2017-11-13T05:10:05.342Z,91.00
2017-11-13T05:12:32.831Z,90.90
2017-11-13T05:15:00.337Z,90.90
2017-11-13T05:17:27.825Z,91.00
2017-11-13T05:19:55.411Z,91.00
2017-11-13T05:22:22.901Z,91.00
2017-11-13T05:24:50.409Z,90.90
2017-11-13T05:27:18.701Z,90.90
2017-11-13T05:29:46.958Z,90.90
2017-11-13T05:32:15.258Z,91.00
2017-11-13T05:34:42.757Z,91.00
2017-11-13T05:37:10.277Z,91.10
2017-11-13T05:39:37.769Z,91.10
2017-11-13T05:42:05.302Z,91.00
2017-11-13T05:44:32.801Z,91.10
2017-11-13T05:47:00.309Z,91.50
2017-11-13T05:49:27.821Z,91.30
2017-11-13T05:51:55.354Z,91.30
2017-11-13T05:54:22.871Z,91.40
2017-11-13T05:56:51.138Z,91.30
2017-11-13T05:59:19.423Z,91.30
2017-11-13T06:01:47.691Z,91.20
2017-11-13T06:04:15.963Z,91.30
2017-11-13T06:06:44.241Z,91.30
2017-11-13T06:09:12.765Z,91.30
2017-11-13T06:11:40.318Z,91.30
2017-11-13T06:14:07.809Z,91.40
2017-11-13T06:16:35.320Z,91.40
2017-11-13T06:19:02.825Z,91.40
2017-11-13T06:21:30.330Z,91.40
2017-11-13T06:23:58.609Z,91.50
2017-11-13T06:26:26.870Z,91.40
2017-11-13T06:28:55.177Z,91.30
2017-11-13T06:31:22.720Z,91.30
2017-11-13T06:33:50.999Z,91.20
2017-11-13T06:36:18.565Z,91.20
2017-11-13T06:38:46.061Z,91.30
2017-11-13T06:41:13.662Z,91.10
2017-11-13T06:43:41.966Z,91.20
2017-11-13T06:46:09.506Z,91.20
2017-11-13T06:48:37.763Z,91.00
2017-11-13T06:51:05.269Z,91.00
2017-11-13T06:53:32.810Z,91.00
2017-11-13T06:56:00.324Z,91.00
2017-11-13T06:58:27.847Z,91.00
2017-11-13T07:00:55.378Z,91.00
2017-11-13T07:03:23.649Z,91.00
2017-11-13T07:05:51.907Z,91.00
2017-11-13T07:08:19.402Z,91.00
2017-11-13T07:10:46.891Z,90.90
2017-11-13T07:13:14.402Z,90.90
2017-11-13T07:15:42.660Z,90.80
2017-11-13T07:18:10.238Z,90.70
2017-11-13T07:20:38.658Z,90.70
2017-11-13T07:23:06.146Z,90.70
2017-11-13T07:25:34.172Z,90.70
2017-11-13T07:28:01.670Z,90.60
2017-11-13T07:30:29.170Z,90.60
2017-11-13T07:32:57.606Z,90.60
2017-11-13T07:35:25.229Z,90.40
2017-11-13T07:37:52.766Z,90.40
2017-11-13T07:40:21.168Z,90.40
2017-11-13T07:42:48.700Z,90.40
2017-11-13T07:45:16.263Z,94.60
2017-11-13T07:47:44.527Z,95.20
2017-11-13T07:50:12.823Z,94.40
2017-11-13T07:52:40.365Z,94.40
2017-11-13T07:55:08.646Z,92.70
2017-11-13T07:57:36.926Z,92.00
2017-11-13T08:00:05.211Z,89.90
2017-11-13T08:02:32.786Z,89.90
2017-11-13T08:05:00.282Z,90.50
2017-11-13T08:07:27.804Z,90.50
2017-11-13T08:09:55.297Z,91.00
2017-11-13T08:12:22.812Z,90.50
2017-11-13T08:14:50.326Z,89.30
2017-11-13T08:17:17.828Z,89.30
2017-11-13T08:19:45.458Z,89.90
2017-11-13T08:22:13.751Z,90.30
2017-11-13T08:24:41.241Z,90.20
2017-11-13T08:27:08.769Z,90.30
2017-11-13T08:29:36.327Z,90.50
2017-11-13T08:32:03.830Z,90.60
2017-11-13T08:34:31.342Z,90.70
2017-11-13T08:36:59.618Z,90.80
2017-11-13T08:39:27.882Z,90.70
2017-11-13T08:41:55.459Z,90.70
2017-11-13T08:44:23.037Z,90.60
2017-11-13T08:46:50.539Z,90.40
2017-11-13T08:49:18.127Z,90.20
2017-11-13T08:51:46.414Z,90.10
2017-11-13T08:54:13.992Z,90.00
2017-11-13T08:56:41.520Z,90.10
2017-11-13T08:59:09.814Z,90.00
2017-11-13T09:01:37.375Z,90.00
2017-11-13T09:04:04.888Z,89.80
2017-11-13T09:06:33.895Z,88.60
2017-11-13T09:09:01.469Z,88.60
2017-11-13T09:11:29.766Z,87.80
2017-11-13T09:13:57.269Z,87.70
2017-11-13T09:16:24.864Z,87.90
2017-11-13T09:18:52.442Z,87.70
2017-11-13T09:21:19.950Z,87.60
2017-11-13T09:23:47.448Z,87.50
2017-11-13T09:26:15.038Z,88.20
2017-11-13T09:28:42.525Z,88.20
2017-11-13T09:31:10.123Z,87.80
2017-11-13T09:33:38.383Z,88.40
2017-11-13T09:36:06.694Z,88.30
2017-11-13T09:38:34.194Z,88.30
2017-11-13T09:41:02.490Z,89.60
2017-11-13T09:43:30.099Z,89.00
2017-11-13T09:45:57.639Z,89.20
2017-11-13T09:48:25.202Z,88.90
2017-11-13T09:50:52.709Z,89.20
2017-11-13T09:53:20.307Z,89.10
2017-11-13T09:55:48.570Z,89.60
2017-11-13T09:58:16.877Z,89.30
2017-11-13T10:00:44.430Z,89.30
2017-11-13T10:03:11.942Z,89.20
2017-11-13T10:05:40.988Z,88.30
2017-11-13T10:08:08.487Z,88.20
2017-11-13T10:10:35.994Z,88.30
2017-11-13T10:13:03.554Z,88.40
2017-11-13T10:15:31.125Z,87.80
2017-11-13T10:17:58.614Z,87.60
2017-11-13T10:20:26.147Z,87.30
2017-11-13T10:22:53.640Z,87.80
2017-11-13T10:25:21.147Z,88.00
2017-11-13T10:27:48.650Z,87.80
2017-11-13T10:30:16.183Z,87.70
2017-11-13T10:32:43.671Z,88.10
2017-11-13T10:35:11.154Z,88.20
2017-11-13T10:37:38.657Z,88.00
2017-11-13T10:40:06.197Z,88.20
2017-11-13T10:42:33.703Z,88.40
2017-11-13T10:45:01.290Z,88.30
2017-11-13T10:47:28.801Z,89.20
2017-11-13T10:49:56.307Z,89.50
2017-11-13T10:52:23.804Z,89.50
2017-11-13T10:54:51.322Z,89.30
2017-11-13T10:57:19.604Z,88.40
2017-11-13T10:59:47.893Z,87.80
2017-11-13T11:02:16.163Z,87.70
2017-11-13T11:04:44.434Z,87.40
2017-11-13T11:07:12.706Z,87.80
2017-11-13T11:09:41.007Z,88.40
2017-11-13T11:12:08.505Z,87.70
2017-11-13T11:17:45.718Z,87.60
2017-11-13T11:20:28.091Z,87.40
2017-11-13T11:22:55.593Z,87.60
2017-11-13T11:25:26.625Z,87.30
2017-11-13T11:27:54.131Z,87.10
2017-11-13T11:33:39.620Z,86.20
2017-11-13T11:36:10.293Z,85.90
2017-11-13T11:38:37.798Z,85.20
2017-11-13T11:41:05.299Z,85.00
2017-11-13T11:43:32.817Z,85.30
2017-11-13T11:46:03.685Z,86.30
2017-11-13T11:51:37.467Z,85.00
2017-11-13T11:54:06.438Z,84.70
2017-11-13T11:56:48.829Z,84.10
2017-11-13T11:59:16.375Z,84.70
2017-11-13T12:01:43.874Z,85.30
2017-11-13T12:04:11.383Z,85.40
2017-11-13T12:06:38.926Z,85.10
2017-11-13T12:09:06.447Z,85.10
2017-11-13T12:11:34.053Z,85.70
2017-11-13T12:14:01.634Z,85.50
2017-11-13T12:16:29.134Z,85.10
2017-11-13T12:18:56.659Z,84.40
2017-11-13T12:21:24.178Z,84.40
2017-11-13T12:23:52.473Z,84.30
2017-11-13T12:26:20.389Z,84.30
2017-11-13T12:28:47.877Z,84.50
2017-11-13T12:31:16.192Z,83.80
2017-11-13T12:33:43.713Z,83.80
2017-11-13T12:36:11.983Z,82.80
2017-11-13T12:38:40.250Z,82.40
2017-11-13T12:41:07.756Z,82.40
2017-11-13T12:43:35.286Z,82.50
2017-11-13T12:46:03.549Z,82.70
2017-11-13T12:48:31.139Z,82.70
2017-11-13T12:50:58.921Z,82.60
2017-11-13T12:53:26.420Z,82.90
2017-11-13T12:55:54.539Z,83.10
2017-11-13T12:58:22.083Z,82.90
2017-11-13T13:00:50.349Z,82.90
2017-11-13T13:03:18.618Z,82.30
2017-11-13T13:05:47.020Z,82.20
2017-11-13T13:08:14.587Z,82.10
2017-11-13T13:10:42.135Z,82.50
2017-11-13T13:13:09.698Z,82.70
2017-11-13T13:15:37.205Z,83.10
2017-11-13T13:18:04.730Z,81.90
2017-11-13T13:20:32.241Z,81.80
2017-11-13T13:22:59.748Z,81.50
2017-11-13T13:25:27.255Z,81.30
2017-11-13T13:27:54.745Z,81.10
2017-11-13T13:30:22.246Z,80.70
2017-11-13T13:32:49.778Z,79.30
2017-11-13T13:35:17.282Z,77.90
2017-11-13T13:37:44.886Z,76.80
2017-11-13T13:40:12.380Z,77.80
2017-11-13T13:42:39.916Z,77.60
2017-11-13T13:45:07.527Z,77.20
2017-11-13T13:47:35.830Z,76.70
2017-11-13T13:50:04.205Z,76.40
2017-11-13T13:52:32.468Z,76.50
2017-11-13T13:54:59.951Z,76.40
2017-11-13T13:57:27.465Z,76.70
2017-11-13T13:59:54.957Z,77.50
2017-11-13T14:02:23.269Z,78.20
2017-11-13T14:04:50.764Z,78.20
2017-11-13T14:07:18.252Z,78.70
2017-11-13T14:09:46.533Z,80.40
2017-11-13T14:12:14.013Z,80.40
2017-11-13T14:14:41.494Z,80.50
2017-11-13T14:17:09.303Z,80.00
2017-11-13T14:19:37.569Z,79.60
2017-11-13T14:22:05.842Z,80.00
2017-11-13T14:24:33.386Z,79.90
2017-11-13T14:27:00.888Z,80.40
2017-11-13T14:29:28.385Z,79.40
2017-11-13T14:31:55.949Z,79.30
2017-11-13T14:34:23.429Z,79.80
2017-11-13T14:36:51.017Z,80.40
2017-11-13T14:39:18.525Z,80.70
2017-11-13T14:41:46.054Z,81.00
2017-11-13T14:44:13.586Z,80.90
2017-11-13T14:46:42.142Z,81.30
2017-11-13T14:49:09.727Z,81.30
2017-11-13T14:51:38.013Z,81.30
2017-11-13T14:54:05.498Z,81.20
2017-11-13T14:56:33.034Z,81.40
2017-11-13T14:59:00.524Z,81.50
2017-11-13T15:01:28.018Z,81.70
2017-11-13T15:03:55.506Z,82.10
2017-11-13T15:06:23.051Z,82.20
2017-11-13T15:08:51.310Z,82.40
2017-11-13T15:11:19.590Z,82.30
2017-11-13T15:13:47.836Z,82.90
2017-11-13T15:16:15.379Z,82.20
2017-11-13T15:18:42.909Z,82.40
2017-11-13T15:21:10.495Z,82.30
2017-11-13T15:23:38.003Z,82.80
2017-11-13T15:26:06.256Z,82.80
2017-11-13T15:28:33.752Z,82.80
2017-11-13T15:31:02.023Z,82.90
2017-11-13T15:33:30.278Z,83.30
2017-11-13T15:35:57.787Z,83.30
2017-11-13T15:38:25.366Z,83.70
2017-11-13T15:40:52.907Z,83.90
2017-11-13T15:43:20.397Z,84.20
2017-11-13T15:45:48.661Z,84.40
2017-11-13T15:48:16.189Z,84.30
2017-11-13T15:50:43.902Z,84.50
2017-11-13T15:53:11.401Z,84.60
2017-11-13T15:55:38.949Z,84.70
2017-11-13T15:58:07.226Z,85.10
2017-11-13T16:00:35.491Z,85.10
2017-11-13T16:03:03.782Z,85.00
2017-11-13T16:05:32.036Z,84.90
2017-11-13T16:07:59.538Z,84.90
2017-11-13T16:10:27.112Z,84.80
2017-11-13T16:12:54.613Z,85.00
2017-11-13T16:15:22.118Z,85.20
2017-11-13T16:17:49.659Z,85.40
2017-11-13T16:20:17.157Z,85.50
2017-11-13T16:22:44.661Z,85.60
2017-11-13T16:25:12.928Z,85.90
2017-11-13T16:27:41.183Z,86.20
2017-11-13T16:30:08.711Z,86.00
2017-11-13T16:32:36.334Z,86.20
2017-11-13T16:35:04.590Z,86.30
2017-11-13T16:37:32.097Z,86.30
2017-11-13T16:39:59.595Z,87.00
2017-11-13T16:42:27.890Z,86.80
2017-11-13T16:44:56.145Z,86.80
2017-11-13T16:47:24.178Z,86.80
2017-11-13T16:49:51.711Z,86.80
2017-11-13T16:52:19.269Z,86.80
2017-11-13T16:54:47.570Z,86.60
2017-11-13T16:57:15.101Z,86.50
2017-11-13T16:59:43.362Z,86.70
2017-11-13T17:02:10.910Z,86.70
2017-11-13T17:04:38.429Z,87.20
2017-11-13T17:10:16.888Z,87.10
2017-11-13T17:12:44.375Z,87.50
2017-11-13T17:15:11.883Z,87.70
2017-11-13T17:17:39.384Z,87.80
2017-11-13T17:20:06.887Z,87.90
2017-11-13T17:22:35.178Z,88.20
2017-11-13T17:25:02.749Z,88.20
2017-11-13T17:27:30.242Z,88.20
2017-11-13T17:29:57.748Z,88.40
2017-11-13T17:32:25.256Z,88.40
2017-11-13T17:34:52.745Z,88.70
2017-11-13T17:37:21.000Z,88.90
2017-11-13T17:39:49.274Z,88.80
2017-11-13T17:42:16.780Z,88.90
2017-11-13T17:44:44.291Z,88.70
2017-11-13T17:47:11.785Z,88.90
2017-11-13T17:49:39.338Z,88.90
2017-11-13T17:52:06.841Z,88.70
2017-11-13T17:54:34.387Z,88.50
2017-11-13T17:57:12.456Z,88.60
2017-11-13T17:59:40.728Z,88.60
2017-11-13T18:02:08.982Z,88.60
2017-11-13T18:04:36.481Z,88.60
2017-11-13T18:07:03.996Z,88.60
2017-11-13T18:09:31.495Z,88.60
2017-11-13T18:11:59.008Z,88.60
2017-11-13T18:14:26.497Z,88.80
2017-11-13T18:16:54.000Z,88.90
2017-11-13T18:19:21.481Z,88.90
2017-11-13T18:21:49.105Z,89.60
2017-11-13T18:24:16.707Z,89.70
2017-11-13T18:26:44.218Z,89.70
2017-11-13T18:29:11.845Z,89.70
2017-11-13T18:31:40.102Z,89.50
2017-11-13T18:34:07.618Z,89.50
2017-11-13T18:36:36.002Z,89.60
2017-11-13T18:39:04.067Z,89.60
2017-11-13T18:41:31.661Z,89.70
2017-11-13T18:43:59.156Z,89.90
2017-11-13T18:46:27.472Z,90.00
2017-11-13T18:48:55.134Z,90.00
2017-11-13T18:51:22.676Z,90.00
2017-11-13T18:53:50.172Z,90.10
2017-11-13T18:56:17.709Z,90.10
2017-11-13T18:58:45.229Z,90.10
2017-11-13T19:01:13.534Z,90.30
2017-11-13T19:03:41.045Z,90.20
2017-11-13T19:06:09.353Z,90.60
2017-11-13T19:08:36.950Z,90.30
2017-11-13T19:11:04.444Z,90.40
2017-11-13T19:13:31.928Z,90.40
2017-11-13T19:15:59.480Z,90.80
2017-11-13T19:18:27.892Z,90.70
2017-11-13T19:20:55.542Z,90.90
2017-11-13T19:23:23.128Z,90.70
2017-11-13T19:25:50.636Z,90.90
2017-11-13T19:28:18.923Z,90.80
2017-11-13T19:30:46.417Z,90.80
2017-11-13T19:33:13.932Z,90.80
2017-11-13T19:35:42.197Z,91.00
2017-11-13T19:38:10.558Z,91.60
2017-11-13T19:40:38.075Z,91.60
2017-11-13T19:43:05.569Z,91.40
2017-11-13T19:45:33.091Z,91.80
2017-11-13T19:48:00.588Z,91.60
2017-11-13T19:50:28.210Z,91.60
2017-11-13T19:52:55.700Z,91.30
2017-11-13T19:55:23.205Z,91.50
2017-11-13T19:57:50.763Z,91.60
2017-11-13T20:00:18.279Z,91.10
2017-11-13T20:02:45.909Z,90.80
2017-11-13T20:05:14.100Z,91.20
2017-11-13T20:07:47.373Z,90.90
2017-11-13T20:10:16.877Z,91.10
2017-11-13T20:12:44.444Z,91.50
2017-11-13T20:15:11.972Z,91.30
2017-11-13T20:17:39.525Z,91.20
2017-11-13T20:20:07.808Z,91.00
2017-11-13T20:22:35.312Z,91.00
2017-11-13T20:25:02.864Z,91.00
2017-11-13T20:27:30.385Z,91.10
2017-11-13T20:29:57.917Z,92.20
2017-11-13T20:32:25.404Z,91.50
2017-11-13T20:34:52.918Z,90.80
2017-11-13T20:37:21.226Z,91.10
2017-11-13T20:39:49.662Z,91.70
2017-11-13T20:42:17.168Z,91.70
2017-11-13T20:44:45.426Z,91.30
2017-11-13T20:47:13.707Z,91.80
2017-11-13T20:49:41.193Z,91.70
2017-11-13T20:52:08.708Z,91.70
2017-11-13T20:54:36.226Z,91.00
2017-11-13T20:57:03.830Z,90.70
2017-11-13T20:59:32.116Z,90.70
2017-11-13T21:01:59.640Z,90.70
2017-11-13T21:04:29.168Z,91.00
2017-11-13T21:06:56.871Z,90.60
2017-11-13T21:09:24.401Z,90.70
2017-11-13T21:11:52.669Z,90.60
2017-11-13T21:14:20.209Z,90.60
2017-11-13T21:16:53.472Z,90.60
2017-11-13T21:19:21.004Z,90.60
2017-11-13T21:21:49.309Z,91.10
2017-11-13T21:24:16.809Z,91.10
2017-11-13T21:26:44.309Z,90.80
2017-11-13T21:29:11.902Z,91.10
2017-11-13T21:31:39.522Z,91.30
2017-11-13T21:34:07.018Z,90.70
2017-11-13T21:36:34.531Z,90.60
2017-11-13T21:39:02.797Z,90.80
2017-11-13T21:41:31.095Z,90.90
2017-11-13T21:43:58.657Z,90.90
2017-11-13T21:46:26.189Z,91.00
2017-11-13T21:48:54.485Z,91.10
2017-11-13T21:51:22.785Z,91.30
2017-11-13T21:53:50.445Z,91.20
2017-11-13T21:56:18.773Z,91.80
2017-11-13T21:58:47.022Z,91.40
2017-11-13T22:01:14.561Z,91.40
2017-11-13T22:03:42.089Z,91.40
2017-11-13T22:06:10.368Z,91.40
2017-11-13T22:08:38.648Z,91.50
2017-11-13T22:11:06.146Z,91.50
2017-11-13T22:13:33.646Z,91.50
2017-11-13T22:16:01.944Z,91.80
2017-11-13T22:18:29.449Z,91.80
2017-11-13T22:20:56.952Z,91.80
2017-11-13T22:23:25.323Z,91.90
2017-11-13T22:25:53.597Z,91.80
2017-11-13T22:28:21.855Z,91.80
2017-11-13T22:30:50.996Z,91.80
2017-11-13T22:33:18.502Z,91.80
2017-11-13T22:35:45.998Z,91.90
2017-11-13T22:38:14.261Z,91.90
2017-11-13T22:40:42.541Z,92.00
2017-11-13T22:43:10.794Z,91.90
2017-11-13T22:45:38.317Z,91.90
2017-11-13T22:48:05.810Z,91.90
2017-11-13T22:50:33.301Z,92.00
2017-11-13T22:53:00.793Z,92.20
2017-11-13T22:55:28.285Z,92.20
2017-11-13T22:57:55.781Z,92.20
2017-11-13T23:00:23.315Z,92.20
2017-11-13T23:02:51.570Z,92.50
2017-11-13T23:05:19.068Z,92.20
2017-11-13T23:07:46.570Z,92.30
2017-11-13T23:10:14.178Z,92.30
2017-11-13T23:12:42.456Z,92.40
2017-11-13T23:15:10.704Z,92.30
2017-11-13T23:17:38.292Z,92.20
2017-11-13T23:20:06.572Z,92.40
2017-11-13T23:22:34.077Z,92.40
2017-11-13T23:25:01.600Z,92.50
2017-11-13T23:27:29.150Z,92.60
2017-11-13T23:29:56.658Z,92.50
2017-11-13T23:32:25.081Z,92.40
2017-11-13T23:34:53.364Z,92.50
2017-11-13T23:37:21.628Z,92.60
2017-11-13T23:39:49.905Z,92.70
2017-11-13T23:42:18.182Z,92.70
2017-11-13T23:44:46.437Z,92.70
2017-11-13T23:47:13.930Z,92.70
2017-11-13T23:49:41.416Z,92.70
2017-11-13T23:52:08.913Z,92.70
2017-11-13T23:54:36.412Z,92.70
2017-11-13T23:57:03.920Z,92.80
2017-11-13T23:59:32.440Z,92.80
